sensor_id;sensor_type;location;lat;lon;timestamp;pressure;altitude;pressure_sealevel;temperature;humidity
78411;BME280;67706;51.074;-1.796;2023-04-24T00:00:08;100264.50;;;6.67;84.63
78411;BME280;67706;51.074;-1.796;2023-04-24T00:02:35;100266.94;;;6.62;84.25
78411;BME280;67706;51.074;-1.796;2023-04-24T00:05:04;100272.88;;;6.66;84.63
78411;BME280;67706;51.074;-1.796;2023-04-24T00:07:31;100258.69;;;6.70;84.35
78411;BME280;67706;51.074;-1.796;2023-04-24T00:09:58;100247.19;;;6.75;84.14
78411;BME280;67706;51.074;-1.796;2023-04-24T00:12:25;100250.88;;;6.67;84.67
78411;BME280;67706;51.074;-1.796;2023-04-24T00:14:52;100261.22;;;6.57;84.83
78411;BME280;67706;51.074;-1.796;2023-04-24T00:17:20;100260.56;;;6.55;84.69
78411;BME280;67706;51.074;-1.796;2023-04-24T00:19:47;100262.78;;;6.52;84.88
78411;BME280;67706;51.074;-1.796;2023-04-24T00:22:15;100261.47;;;6.48;85.03
78411;BME280;67706;51.074;-1.796;2023-04-24T00:24:42;100276.41;;;6.52;85.00
78411;BME280;67706;51.074;-1.796;2023-04-24T00:27:09;100279.78;;;6.54;84.63
78411;BME280;67706;51.074;-1.796;2023-04-24T00:29:36;100287.50;;;6.50;84.66
78411;BME280;67706;51.074;-1.796;2023-04-24T00:32:02;100282.59;;;6.46;84.57
78411;BME280;67706;51.074;-1.796;2023-04-24T00:34:30;100280.91;;;6.45;84.22
78411;BME280;67706;51.074;-1.796;2023-04-24T00:36:58;100285.91;;;6.56;83.36
78411;BME280;67706;51.074;-1.796;2023-04-24T00:39:24;100287.22;;;6.45;83.88
78411;BME280;67706;51.074;-1.796;2023-04-24T00:41:51;100300.00;;;6.45;84.38
78411;BME280;67706;51.074;-1.796;2023-04-24T00:44:18;100298.13;;;6.45;83.92
78411;BME280;67706;51.074;-1.796;2023-04-24T00:46:46;100301.00;;;6.43;84.19
78411;BME280;67706;51.074;-1.796;2023-04-24T00:49:17;100303.38;;;6.47;83.64
78411;BME280;67706;51.074;-1.796;2023-04-24T00:51:46;100302.78;;;6.36;84.27
78411;BME280;67706;51.074;-1.796;2023-04-24T00:54:12;100309.03;;;6.45;83.63
78411;BME280;67706;51.074;-1.796;2023-04-24T00:56:40;100302.78;;;6.36;84.04
78411;BME280;67706;51.074;-1.796;2023-04-24T00:59:08;100311.34;;;6.48;83.65
78411;BME280;67706;51.074;-1.796;2023-04-24T01:01:35;100307.84;;;6.39;83.78
78411;BME280;67706;51.074;-1.796;2023-04-24T01:04:02;100317.66;;;6.49;83.79
78411;BME280;67706;51.074;-1.796;2023-04-24T01:06:29;100306.09;;;6.47;83.64
78411;BME280;67706;51.074;-1.796;2023-04-24T01:08:58;100315.75;;;6.34;84.08
78411;BME280;67706;51.074;-1.796;2023-04-24T01:11:26;100317.50;;;6.27;84.32
78411;BME280;67706;51.074;-1.796;2023-04-24T01:13:52;100317.75;;;6.40;83.58
78411;BME280;67706;51.074;-1.796;2023-04-24T01:16:19;100311.56;;;6.47;82.80
78411;BME280;67706;51.074;-1.796;2023-04-24T01:18:47;100321.56;;;6.31;83.35
78411;BME280;67706;51.074;-1.796;2023-04-24T01:21:15;100316.03;;;6.39;83.13
78411;BME280;67706;51.074;-1.796;2023-04-24T01:23:44;100318.88;;;6.46;82.85
78411;BME280;67706;51.074;-1.796;2023-04-24T01:26:12;100326.34;;;6.29;83.41
78411;BME280;67706;51.074;-1.796;2023-04-24T01:28:39;100323.50;;;6.23;83.42
78411;BME280;67706;51.074;-1.796;2023-04-24T01:31:06;100311.59;;;6.24;83.69
78411;BME280;67706;51.074;-1.796;2023-04-24T01:33:33;100316.53;;;6.20;83.80
78411;BME280;67706;51.074;-1.796;2023-04-24T01:36:00;100322.81;;;6.21;83.95
78411;BME280;67706;51.074;-1.796;2023-04-24T01:38:26;100326.28;;;6.15;84.05
78411;BME280;67706;51.074;-1.796;2023-04-24T01:40:54;100326.75;;;6.18;84.00
78411;BME280;67706;51.074;-1.796;2023-04-24T01:43:21;100326.34;;;6.29;83.68
78411;BME280;67706;51.074;-1.796;2023-04-24T01:45:48;100339.88;;;6.37;83.55
78411;BME280;67706;51.074;-1.796;2023-04-24T01:48:15;100333.78;;;6.35;83.49
78411;BME280;67706;51.074;-1.796;2023-04-24T01:50:41;100328.31;;;6.35;83.55
78411;BME280;67706;51.074;-1.796;2023-04-24T01:53:08;100330.28;;;6.27;83.79
78411;BME280;67706;51.074;-1.796;2023-04-24T01:55:35;100326.69;;;6.26;83.65
78411;BME280;67706;51.074;-1.796;2023-04-24T01:58:03;100332.03;;;6.20;84.24
78411;BME280;67706;51.074;-1.796;2023-04-24T02:00:30;100326.00;;;6.32;83.92
78411;BME280;67706;51.074;-1.796;2023-04-24T02:02:56;100334.56;;;6.21;84.24
78411;BME280;67706;51.074;-1.796;2023-04-24T02:05:23;100340.88;;;6.22;84.13
78411;BME280;67706;51.074;-1.796;2023-04-24T02:07:50;100338.97;;;6.22;84.00
78411;BME280;67706;51.074;-1.796;2023-04-24T02:10:17;100335.31;;;6.15;84.14
78411;BME280;67706;51.074;-1.796;2023-04-24T02:12:43;100336.31;;;6.14;84.20
78411;BME280;67706;51.074;-1.796;2023-04-24T02:15:11;100347.75;;;6.10;84.50
78411;BME280;67706;51.074;-1.796;2023-04-24T02:17:38;100342.81;;;6.13;84.38
78411;BME280;67706;51.074;-1.796;2023-04-24T02:20:06;100355.78;;;6.03;84.80
78411;BME280;67706;51.074;-1.796;2023-04-24T02:22:33;100356.38;;;5.91;85.09
78411;BME280;67706;51.074;-1.796;2023-04-24T02:25:00;100367.59;;;5.96;84.87
78411;BME280;67706;51.074;-1.796;2023-04-24T02:27:27;100362.63;;;5.99;84.56
78411;BME280;67706;51.074;-1.796;2023-04-24T02:29:53;100366.41;;;5.98;85.16
78411;BME280;67706;51.074;-1.796;2023-04-24T02:32:21;100367.00;;;6.08;84.83
78411;BME280;67706;51.074;-1.796;2023-04-24T02:34:48;100363.34;;;6.24;84.23
78411;BME280;67706;51.074;-1.796;2023-04-24T02:37:15;100369.97;;;6.21;84.78
78411;BME280;67706;51.074;-1.796;2023-04-24T02:39:42;100367.59;;;6.18;84.82
78411;BME280;67706;51.074;-1.796;2023-04-24T02:42:08;100378.88;;;6.15;84.48
78411;BME280;67706;51.074;-1.796;2023-04-24T02:44:35;100379.63;;;6.01;85.05
78411;BME280;67706;51.074;-1.796;2023-04-24T02:47:02;100383.75;;;5.97;84.77
78411;BME280;67706;51.074;-1.796;2023-04-24T02:49:30;100387.19;;;5.91;85.11
78411;BME280;67706;51.074;-1.796;2023-04-24T02:51:57;100379.69;;;5.93;85.49
78411;BME280;67706;51.074;-1.796;2023-04-24T02:54:23;100389.78;;;5.85;85.52
78411;BME280;67706;51.074;-1.796;2023-04-24T02:56:51;100396.56;;;5.89;85.35
78411;BME280;67706;51.074;-1.796;2023-04-24T02:59:18;100405.56;;;5.89;84.96
78411;BME280;67706;51.074;-1.796;2023-04-24T03:01:45;100401.69;;;5.84;85.48
78411;BME280;67706;51.074;-1.796;2023-04-24T03:04:12;100408.97;;;5.83;85.51
78411;BME280;67706;51.074;-1.796;2023-04-24T03:06:40;100412.06;;;5.80;85.16
78411;BME280;67706;51.074;-1.796;2023-04-24T03:09:06;100405.28;;;5.84;85.02
78411;BME280;67706;51.074;-1.796;2023-04-24T03:11:33;100413.75;;;5.89;84.77
78411;BME280;67706;51.074;-1.796;2023-04-24T03:14:00;100411.53;;;5.85;84.96
78411;BME280;67706;51.074;-1.796;2023-04-24T03:16:27;100418.75;;;5.70;85.63
78411;BME280;67706;51.074;-1.796;2023-04-24T03:18:54;100419.28;;;5.65;85.79
78411;BME280;67706;51.074;-1.796;2023-04-24T03:21:21;100422.53;;;5.60;86.10
78411;BME280;67706;51.074;-1.796;2023-04-24T03:23:49;100418.50;;;5.48;86.78
78411;BME280;67706;51.074;-1.796;2023-04-24T03:26:15;100410.16;;;5.50;86.70
78411;BME280;67706;51.074;-1.796;2023-04-24T03:28:42;100402.44;;;5.61;86.49
78411;BME280;67706;51.074;-1.796;2023-04-24T03:31:09;100407.00;;;5.69;86.17
78411;BME280;67706;51.074;-1.796;2023-04-24T03:33:36;100404.69;;;5.58;86.50
78411;BME280;67706;51.074;-1.796;2023-04-24T03:36:03;100403.28;;;5.62;85.78
78411;BME280;67706;51.074;-1.796;2023-04-24T03:38:30;100411.41;;;5.70;85.46
78411;BME280;67706;51.074;-1.796;2023-04-24T03:40:58;100416.06;;;5.53;85.93
78411;BME280;67706;51.074;-1.796;2023-04-24T03:43:25;100418.66;;;5.55;86.21
78411;BME280;67706;51.074;-1.796;2023-04-24T03:45:52;100424.56;;;5.58;86.02
78411;BME280;67706;51.074;-1.796;2023-04-24T03:48:19;100420.66;;;5.53;86.04
78411;BME280;67706;51.074;-1.796;2023-04-24T03:50:46;100416.94;;;5.54;86.21
78411;BME280;67706;51.074;-1.796;2023-04-24T03:53:13;100416.59;;;5.57;85.72
78411;BME280;67706;51.074;-1.796;2023-04-24T03:55:39;100414.88;;;5.56;85.59
78411;BME280;67706;51.074;-1.796;2023-04-24T03:58:07;100408.78;;;5.54;85.83
78411;BME280;67706;51.074;-1.796;2023-04-24T04:00:34;100406.69;;;5.64;85.42
78411;BME280;67706;51.074;-1.796;2023-04-24T04:03:02;100408.88;;;5.69;84.87
78411;BME280;67706;51.074;-1.796;2023-04-24T04:05:29;100400.44;;;5.55;85.17
78411;BME280;67706;51.074;-1.796;2023-04-24T04:07:56;100400.94;;;5.59;85.11
78411;BME280;67706;51.074;-1.796;2023-04-24T04:10:23;100407.25;;;5.51;85.60
78411;BME280;67706;51.074;-1.796;2023-04-24T04:12:49;100401.63;;;5.61;85.35
78411;BME280;67706;51.074;-1.796;2023-04-24T04:15:17;100405.16;;;5.70;85.07
78411;BME280;67706;51.074;-1.796;2023-04-24T04:17:44;100410.25;;;5.64;84.91
78411;BME280;67706;51.074;-1.796;2023-04-24T04:20:11;100411.47;;;5.62;85.20
78411;BME280;67706;51.074;-1.796;2023-04-24T04:22:38;100413.31;;;5.61;85.22
78411;BME280;67706;51.074;-1.796;2023-04-24T04:25:05;100415.22;;;5.53;85.34
78411;BME280;67706;51.074;-1.796;2023-04-24T04:27:34;100419.03;;;5.44;85.83
78411;BME280;67706;51.074;-1.796;2023-04-24T04:30:01;100413.09;;;5.32;86.52
78411;BME280;67706;51.074;-1.796;2023-04-24T04:32:31;100412.59;;;5.29;86.57
78411;BME280;67706;51.074;-1.796;2023-04-24T04:34:58;100419.22;;;5.26;86.38
78411;BME280;67706;51.074;-1.796;2023-04-24T04:37:28;100416.66;;;5.33;86.45
78411;BME280;67706;51.074;-1.796;2023-04-24T04:39:55;100413.28;;;5.31;86.02
78411;BME280;67706;51.074;-1.796;2023-04-24T04:42:23;100419.91;;;5.28;86.24
78411;BME280;67706;51.074;-1.796;2023-04-24T04:44:50;100429.44;;;5.24;86.29
78411;BME280;67706;51.074;-1.796;2023-04-24T04:47:17;100431.66;;;5.21;86.53
78411;BME280;67706;51.074;-1.796;2023-04-24T04:49:45;100442.88;;;5.18;86.58
78411;BME280;67706;51.074;-1.796;2023-04-24T04:52:11;100441.69;;;5.20;86.62
78411;BME280;67706;51.074;-1.796;2023-04-24T04:54:38;100437.13;;;5.13;86.53
78411;BME280;67706;51.074;-1.796;2023-04-24T04:57:05;100437.78;;;5.15;86.21
78411;BME280;67706;51.074;-1.796;2023-04-24T04:59:33;100446.63;;;5.17;86.53
78411;BME280;67706;51.074;-1.796;2023-04-24T05:02:00;100438.50;;;5.09;86.80
78411;BME280;67706;51.074;-1.796;2023-04-24T05:04:27;100441.00;;;5.18;86.48
78411;BME280;67706;51.074;-1.796;2023-04-24T05:06:55;100441.53;;;5.14;86.29
78411;BME280;67706;51.074;-1.796;2023-04-24T05:09:22;100430.16;;;5.10;86.68
78411;BME280;67706;51.074;-1.796;2023-04-24T05:11:48;100436.72;;;5.24;85.80
78411;BME280;67706;51.074;-1.796;2023-04-24T05:14:16;100453.41;;;5.21;85.96
78411;BME280;67706;51.074;-1.796;2023-04-24T05:16:43;100455.78;;;5.16;86.17
78411;BME280;67706;51.074;-1.796;2023-04-24T05:19:10;100462.28;;;5.07;86.52
78411;BME280;67706;51.074;-1.796;2023-04-24T05:21:37;100460.56;;;5.06;86.75
78411;BME280;67706;51.074;-1.796;2023-04-24T05:24:06;100468.38;;;5.09;86.83
78411;BME280;67706;51.074;-1.796;2023-04-24T05:26:33;100471.81;;;5.03;86.70
78411;BME280;67706;51.074;-1.796;2023-04-24T05:29:00;100470.25;;;5.08;86.93
78411;BME280;67706;51.074;-1.796;2023-04-24T05:31:27;100483.50;;;5.19;86.37
78411;BME280;67706;51.074;-1.796;2023-04-24T05:33:54;100465.00;;;5.07;86.21
78411;BME280;67706;51.074;-1.796;2023-04-24T05:36:21;100482.13;;;5.07;87.04
78411;BME280;67706;51.074;-1.796;2023-04-24T05:38:47;100487.75;;;5.06;86.79
78411;BME280;67706;51.074;-1.796;2023-04-24T05:41:15;100489.78;;;5.12;86.59
78411;BME280;67706;51.074;-1.796;2023-04-24T05:43:42;100498.28;;;5.17;86.36
78411;BME280;67706;51.074;-1.796;2023-04-24T05:46:09;100498.44;;;5.23;86.35
78411;BME280;67706;51.074;-1.796;2023-04-24T05:48:35;100505.56;;;5.32;86.08
78411;BME280;67706;51.074;-1.796;2023-04-24T05:51:03;100491.28;;;5.46;85.25
78411;BME280;67706;51.074;-1.796;2023-04-24T05:53:29;100494.84;;;5.39;85.39
78411;BME280;67706;51.074;-1.796;2023-04-24T05:55:56;100493.84;;;5.32;85.55
78411;BME280;67706;51.074;-1.796;2023-04-24T05:58:24;100497.91;;;5.44;85.59
78411;BME280;67706;51.074;-1.796;2023-04-24T06:00:51;100505.72;;;5.39;85.87
78411;BME280;67706;51.074;-1.796;2023-04-24T06:03:18;100500.94;;;5.49;85.52
78411;BME280;67706;51.074;-1.796;2023-04-24T06:05:45;100498.53;;;5.62;84.88
78411;BME280;67706;51.074;-1.796;2023-04-24T06:08:12;100510.09;;;5.64;84.32
78411;BME280;67706;51.074;-1.796;2023-04-24T06:10:38;100508.06;;;5.58;85.08
78411;BME280;67706;51.074;-1.796;2023-04-24T06:13:05;100506.34;;;5.65;84.86
78411;BME280;67706;51.074;-1.796;2023-04-24T06:15:33;100500.69;;;5.75;85.00
78411;BME280;67706;51.074;-1.796;2023-04-24T06:18:00;100509.03;;;5.73;84.94
78411;BME280;67706;51.074;-1.796;2023-04-24T06:20:27;100516.88;;;5.84;84.44
78411;BME280;67706;51.074;-1.796;2023-04-24T06:22:53;100514.47;;;5.81;84.73
78411;BME280;67706;51.074;-1.796;2023-04-24T06:25:20;100504.63;;;5.88;84.70
78411;BME280;67706;51.074;-1.796;2023-04-24T06:27:47;100509.28;;;6.10;83.45
78411;BME280;67706;51.074;-1.796;2023-04-24T06:30:14;100512.81;;;6.19;82.92
78411;BME280;67706;51.074;-1.796;2023-04-24T06:32:42;100512.91;;;6.33;82.90
78411;BME280;67706;51.074;-1.796;2023-04-24T06:35:09;100510.56;;;6.53;81.98
78411;BME280;67706;51.074;-1.796;2023-04-24T06:37:36;100517.19;;;6.59;81.21
78411;BME280;67706;51.074;-1.796;2023-04-24T06:40:04;100519.75;;;6.52;81.60
78411;BME280;67706;51.074;-1.796;2023-04-24T06:42:31;100516.50;;;6.57;81.17
78411;BME280;67706;51.074;-1.796;2023-04-24T06:44:58;100510.16;;;6.64;81.06
78411;BME280;67706;51.074;-1.796;2023-04-24T06:47:24;100514.78;;;6.56;81.36
78411;BME280;67706;51.074;-1.796;2023-04-24T06:49:52;100520.28;;;6.48;82.02
78411;BME280;67706;51.074;-1.796;2023-04-24T06:52:20;100515.34;;;6.51;82.29
78411;BME280;67706;51.074;-1.796;2023-04-24T06:54:47;100512.59;;;6.59;81.47
78411;BME280;67706;51.074;-1.796;2023-04-24T06:57:14;100518.16;;;6.66;81.88
78411;BME280;67706;51.074;-1.796;2023-04-24T06:59:41;100513.97;;;6.78;82.14
78411;BME280;67706;51.074;-1.796;2023-04-24T07:02:08;100504.81;;;6.93;81.96
78411;BME280;67706;51.074;-1.796;2023-04-24T07:04:34;100518.50;;;7.08;81.63
78411;BME280;67706;51.074;-1.796;2023-04-24T07:07:03;100513.91;;;7.08;81.88
78411;BME280;67706;51.074;-1.796;2023-04-24T07:09:31;100513.50;;;6.97;82.07
78411;BME280;67706;51.074;-1.796;2023-04-24T07:11:58;100521.97;;;7.02;82.04
78411;BME280;67706;51.074;-1.796;2023-04-24T07:14:24;100514.25;;;7.28;80.09
78411;BME280;67706;51.074;-1.796;2023-04-24T07:16:51;100509.59;;;7.14;80.76
78411;BME280;67706;51.074;-1.796;2023-04-24T07:19:18;100517.75;;;7.37;79.43
78411;BME280;67706;51.074;-1.796;2023-04-24T07:21:44;100517.13;;;7.49;78.12
78411;BME280;67706;51.074;-1.796;2023-04-24T07:24:12;100519.00;;;7.49;78.13
78411;BME280;67706;51.074;-1.796;2023-04-24T07:26:39;100515.03;;;7.51;78.03
78411;BME280;67706;51.074;-1.796;2023-04-24T07:29:06;100514.75;;;7.61;77.87
78411;BME280;67706;51.074;-1.796;2023-04-24T07:31:33;100516.94;;;7.65;77.76
78411;BME280;67706;51.074;-1.796;2023-04-24T07:33:59;100519.88;;;7.78;77.40
78411;BME280;67706;51.074;-1.796;2023-04-24T07:36:26;100522.88;;;7.98;76.24
78411;BME280;67706;51.074;-1.796;2023-04-24T07:38:54;100518.63;;;8.25;75.57
78411;BME280;67706;51.074;-1.796;2023-04-24T07:41:22;100521.81;;;8.43;75.43
78411;BME280;67706;51.074;-1.796;2023-04-24T07:43:49;100526.97;;;8.67;75.19
78411;BME280;67706;51.074;-1.796;2023-04-24T07:46:16;100521.53;;;8.73;74.20
78411;BME280;67706;51.074;-1.796;2023-04-24T07:48:43;100522.81;;;8.92;74.94
78411;BME280;67706;51.074;-1.796;2023-04-24T07:51:10;100516.22;;;9.08;73.58
78411;BME280;67706;51.074;-1.796;2023-04-24T07:53:38;100522.25;;;9.24;73.25
78411;BME280;67706;51.074;-1.796;2023-04-24T07:56:05;100516.47;;;9.34;72.21
78411;BME280;67706;51.074;-1.796;2023-04-24T07:58:33;100519.13;;;9.48;71.97
78411;BME280;67706;51.074;-1.796;2023-04-24T08:01:00;100527.56;;;9.53;71.14
78411;BME280;67706;51.074;-1.796;2023-04-24T08:03:27;100516.38;;;9.48;71.58
78411;BME280;67706;51.074;-1.796;2023-04-24T08:05:53;100527.34;;;9.48;72.50
78411;BME280;67706;51.074;-1.796;2023-04-24T08:08:21;100524.03;;;9.59;71.05
78411;BME280;67706;51.074;-1.796;2023-04-24T08:10:48;100524.53;;;9.70;71.73
78411;BME280;67706;51.074;-1.796;2023-04-24T08:13:15;100523.31;;;9.79;71.96
78411;BME280;67706;51.074;-1.796;2023-04-24T08:15:43;100521.22;;;9.81;71.51
78411;BME280;67706;51.074;-1.796;2023-04-24T08:18:10;100520.00;;;9.83;71.60
78411;BME280;67706;51.074;-1.796;2023-04-24T08:20:37;100520.50;;;10.00;71.11
78411;BME280;67706;51.074;-1.796;2023-04-24T08:23:04;100519.66;;;9.93;69.23
78411;BME280;67706;51.074;-1.796;2023-04-24T08:25:31;100518.19;;;9.97;69.25
78411;BME280;67706;51.074;-1.796;2023-04-24T08:27:57;100518.41;;;10.02;68.54
78411;BME280;67706;51.074;-1.796;2023-04-24T08:30:24;100527.06;;;9.99;69.41
78411;BME280;67706;51.074;-1.796;2023-04-24T08:32:52;100535.63;;;10.17;69.94
78411;BME280;67706;51.074;-1.796;2023-04-24T08:35:19;100531.84;;;10.18;72.91
78411;BME280;67706;51.074;-1.796;2023-04-24T08:37:47;100533.00;;;10.09;74.57
78411;BME280;67706;51.074;-1.796;2023-04-24T08:40:15;100536.78;;;10.08;74.75
78411;BME280;67706;51.074;-1.796;2023-04-24T08:42:42;100528.84;;;10.13;74.93
78411;BME280;67706;51.074;-1.796;2023-04-24T08:45:10;100527.09;;;10.05;73.75
78411;BME280;67706;51.074;-1.796;2023-04-24T08:47:38;100537.28;;;10.11;74.58
78411;BME280;67706;51.074;-1.796;2023-04-24T08:50:08;100542.34;;;9.87;74.58
78411;BME280;67706;51.074;-1.796;2023-04-24T08:52:35;100540.03;;;9.84;74.52
78411;BME280;67706;51.074;-1.796;2023-04-24T08:55:03;100535.41;;;9.91;75.65
78411;BME280;67706;51.074;-1.796;2023-04-24T08:57:31;100526.63;;;10.02;75.39
78411;BME280;67706;51.074;-1.796;2023-04-24T08:59:59;100526.75;;;10.15;74.99
78411;BME280;67706;51.074;-1.796;2023-04-24T09:02:26;100523.44;;;10.26;74.16
78411;BME280;67706;51.074;-1.796;2023-04-24T09:04:53;100513.97;;;10.35;73.30
78411;BME280;67706;51.074;-1.796;2023-04-24T09:07:24;100517.22;;;10.45;71.96
78411;BME280;67706;51.074;-1.796;2023-04-24T09:09:51;100523.34;;;10.60;71.94
78411;BME280;67706;51.074;-1.796;2023-04-24T09:12:19;100514.34;;;10.79;70.35
78411;BME280;67706;51.074;-1.796;2023-04-24T09:14:46;100514.56;;;10.78;70.32
78411;BME280;67706;51.074;-1.796;2023-04-24T09:17:14;100516.06;;;10.93;69.49
78411;BME280;67706;51.074;-1.796;2023-04-24T09:19:41;100516.31;;;11.11;67.95
78411;BME280;67706;51.074;-1.796;2023-04-24T09:22:08;100508.50;;;11.22;67.94
78411;BME280;67706;51.074;-1.796;2023-04-24T09:24:38;100522.44;;;11.13;67.65
78411;BME280;67706;51.074;-1.796;2023-04-24T09:27:05;100522.25;;;11.22;67.56
78411;BME280;67706;51.074;-1.796;2023-04-24T09:29:31;100521.63;;;11.33;66.60
78411;BME280;67706;51.074;-1.796;2023-04-24T09:31:59;100520.16;;;11.37;66.90
78411;BME280;67706;51.074;-1.796;2023-04-24T09:34:26;100513.19;;;11.67;66.83
78411;BME280;67706;51.074;-1.796;2023-04-24T09:36:53;100519.53;;;11.74;66.77
78411;BME280;67706;51.074;-1.796;2023-04-24T09:39:20;100518.66;;;11.60;66.19
78411;BME280;67706;51.074;-1.796;2023-04-24T09:41:49;100522.03;;;11.43;65.07
78411;BME280;67706;51.074;-1.796;2023-04-24T09:44:18;100522.47;;;11.53;63.98
78411;BME280;67706;51.074;-1.796;2023-04-24T09:46:49;100526.47;;;11.50;62.27
78411;BME280;67706;51.074;-1.796;2023-04-24T09:49:21;100526.91;;;11.54;62.81
78411;BME280;67706;51.074;-1.796;2023-04-24T09:51:48;100524.56;;;11.90;62.85
78411;BME280;67706;51.074;-1.796;2023-04-24T09:54:16;100530.81;;;12.23;62.90
78411;BME280;67706;51.074;-1.796;2023-04-24T09:56:44;100522.56;;;12.30;61.12
78411;BME280;67706;51.074;-1.796;2023-04-24T09:59:13;100520.22;;;12.40;61.26
78411;BME280;67706;51.074;-1.796;2023-04-24T10:01:40;100519.53;;;12.44;59.63
78411;BME280;67706;51.074;-1.796;2023-04-24T10:04:16;100515.88;;;12.57;58.95
78411;BME280;67706;51.074;-1.796;2023-04-24T10:06:44;100525.22;;;12.56;59.80
78411;BME280;67706;51.074;-1.796;2023-04-24T10:09:10;100517.59;;;12.58;61.23
78411;BME280;67706;51.074;-1.796;2023-04-24T10:11:41;100516.69;;;12.70;61.43
78411;BME280;67706;51.074;-1.796;2023-04-24T10:14:09;100515.88;;;12.63;59.63
78411;BME280;67706;51.074;-1.796;2023-04-24T10:16:37;100517.84;;;12.50;59.96
78411;BME280;67706;51.074;-1.796;2023-04-24T10:19:04;100523.03;;;12.20;59.94
78411;BME280;67706;51.074;-1.796;2023-04-24T10:21:32;100512.63;;;12.35;61.17
78411;BME280;67706;51.074;-1.796;2023-04-24T10:23:58;100514.13;;;12.25;61.65
78411;BME280;67706;51.074;-1.796;2023-04-24T10:26:29;100516.03;;;12.24;61.85
78411;BME280;67706;51.074;-1.796;2023-04-24T10:28:57;100517.72;;;12.25;63.32
78411;BME280;67706;51.074;-1.796;2023-04-24T10:31:25;100522.38;;;12.25;63.64
78411;BME280;67706;51.074;-1.796;2023-04-24T10:33:54;100520.47;;;12.25;61.91
78411;BME280;67706;51.074;-1.796;2023-04-24T10:36:22;100515.63;;;12.14;63.11
78411;BME280;67706;51.074;-1.796;2023-04-24T10:38:52;100519.03;;;12.10;63.30
78411;BME280;67706;51.074;-1.796;2023-04-24T10:41:21;100521.56;;;12.11;62.85
78411;BME280;67706;51.074;-1.796;2023-04-24T10:44:04;100522.47;;;11.85;63.88
78411;BME280;67706;51.074;-1.796;2023-04-24T10:46:30;100518.03;;;11.71;64.67
78411;BME280;67706;51.074;-1.796;2023-04-24T10:48:59;100515.09;;;11.73;67.21
78411;BME280;67706;51.074;-1.796;2023-04-24T10:51:44;100515.50;;;11.70;69.39
78411;BME280;67706;51.074;-1.796;2023-04-24T10:54:22;100515.94;;;11.67;68.84
78411;BME280;67706;51.074;-1.796;2023-04-24T10:56:50;100507.69;;;11.67;70.59
78411;BME280;67706;51.074;-1.796;2023-04-24T10:59:24;100509.75;;;11.65;72.68
78411;BME280;67706;51.074;-1.796;2023-04-24T11:01:53;100497.31;;;11.75;72.33
78411;BME280;67706;51.074;-1.796;2023-04-24T11:04:31;100496.66;;;11.93;71.00
78411;BME280;67706;51.074;-1.796;2023-04-24T11:06:58;100502.31;;;12.05;70.97
78411;BME280;67706;51.074;-1.796;2023-04-24T11:09:26;100499.94;;;12.28;70.44
78411;BME280;67706;51.074;-1.796;2023-04-24T11:12:03;100499.03;;;12.40;70.28
78411;BME280;67706;51.074;-1.796;2023-04-24T11:15:01;100494.59;;;12.39;72.18
78411;BME280;67706;51.074;-1.796;2023-04-24T11:17:31;100489.69;;;12.54;71.55
78411;BME280;67706;51.074;-1.796;2023-04-24T11:20:03;100487.38;;;12.45;70.71
78411;BME280;67706;51.074;-1.796;2023-04-24T11:22:33;100496.03;;;12.48;69.60
78411;BME280;67706;51.074;-1.796;2023-04-24T11:25:00;100503.81;;;12.07;67.45
78411;BME280;67706;51.074;-1.796;2023-04-24T11:27:30;100502.13;;;12.06;70.64
78411;BME280;67706;51.074;-1.796;2023-04-24T11:30:01;100492.03;;;11.87;72.17
78411;BME280;67706;51.074;-1.796;2023-04-24T11:32:29;100501.31;;;11.86;73.38
78411;BME280;67706;51.074;-1.796;2023-04-24T11:34:57;100497.50;;;11.61;73.01
78411;BME280;67706;51.074;-1.796;2023-04-24T11:37:27;100508.72;;;11.40;76.29
78411;BME280;67706;51.074;-1.796;2023-04-24T11:39:55;100527.72;;;11.22;75.25
78411;BME280;67706;51.074;-1.796;2023-04-24T11:42:22;100542.50;;;11.20;74.63
78411;BME280;67706;51.074;-1.796;2023-04-24T11:44:53;100551.84;;;10.59;72.47
78411;BME280;67706;51.074;-1.796;2023-04-24T11:47:27;100544.34;;;10.33;74.31
78411;BME280;67706;51.074;-1.796;2023-04-24T11:49:54;100548.41;;;10.10;76.92
78411;BME280;67706;51.074;-1.796;2023-04-24T11:52:21;100548.47;;;9.89;77.58
78411;BME280;67706;51.074;-1.796;2023-04-24T11:54:50;100542.75;;;9.84;77.80
78411;BME280;67706;51.074;-1.796;2023-04-24T11:57:19;100537.50;;;9.89;76.29
78411;BME280;67706;51.074;-1.796;2023-04-24T11:59:46;100534.00;;;9.67;76.13
78411;BME280;67706;51.074;-1.796;2023-04-24T12:02:20;100537.06;;;9.57;77.74
78411;BME280;67706;51.074;-1.796;2023-04-24T12:04:47;100531.09;;;9.75;77.06
78411;BME280;67706;51.074;-1.796;2023-04-24T12:07:13;100520.03;;;9.90;78.62
78411;BME280;67706;51.074;-1.796;2023-04-24T12:09:41;100516.75;;;10.01;78.54
78411;BME280;67706;51.074;-1.796;2023-04-24T12:12:11;100520.63;;;10.13;79.50
78411;BME280;67706;51.074;-1.796;2023-04-24T12:14:48;100512.34;;;10.06;79.55
78411;BME280;67706;51.074;-1.796;2023-04-24T12:17:15;100523.50;;;10.05;79.39
78411;BME280;67706;51.074;-1.796;2023-04-24T12:19:46;100522.00;;;10.02;79.71
78411;BME280;67706;51.074;-1.796;2023-04-24T12:22:13;100529.00;;;10.05;79.50
78411;BME280;67706;51.074;-1.796;2023-04-24T12:24:57;100535.41;;;9.91;80.18
78411;BME280;67706;51.074;-1.796;2023-04-24T12:27:25;100539.84;;;9.92;80.51
78411;BME280;67706;51.074;-1.796;2023-04-24T12:29:53;100539.69;;;10.00;78.64
78411;BME280;67706;51.074;-1.796;2023-04-24T12:32:20;100531.91;;;9.97;79.25
78411;BME280;67706;51.074;-1.796;2023-04-24T12:34:46;100532.03;;;10.16;79.11
78411;BME280;67706;51.074;-1.796;2023-04-24T12:37:13;100530.94;;;10.11;80.27
78411;BME280;67706;51.074;-1.796;2023-04-24T12:39:44;100533.63;;;10.04;80.09
78411;BME280;67706;51.074;-1.796;2023-04-24T12:42:11;100522.44;;;10.06;79.73
78411;BME280;67706;51.074;-1.796;2023-04-24T12:44:39;100528.34;;;10.03;77.26
78411;BME280;67706;51.074;-1.796;2023-04-24T12:47:06;100516.53;;;10.02;79.17
78411;BME280;67706;51.074;-1.796;2023-04-24T12:49:33;100515.81;;;9.87;80.89